aerodrome LA FERTE GAUCHER, LFFG, pilots, aviation, flying | pilotspace.eu

LA FERTE GAUCHER

aerodrome LA FERTE GAUCHER

ICAO/ID: LFFG
France
web: Réservé au parachutisme et aux avions de servitude
show on the map

LFPM 261200Z AUTO 17004KT 9000 OVC004 13/12 Q1011

TAF LFPG 261100Z 2612/2718 20005KT 3500 BR BKN004 BECMG 2612/2613 6000 NSW BKN006 TEMPO 2613/2617 BKN012 BECMG 2617/2620 17005KT 3000 BR BKN004 TEMPO 2620/2710 VRB02KT 1500 BR BKN003 PROB30 TEMPO 2620/2624 0600 BCFG BKN001 PROB40 TEMPO 2700/2710 0400 FG BKN000 PROB30 TEMPO 2700/2709 0300 FG VV/// BECMG 2710/2712 6000 NSW BKN008 PROB30 TEMPO 2707/2712 2000 -RADZ BECMG 2712/2714 BKN014 TX13/2614Z TN09/2706Z

general information

altitude: 538 ft
latitude: 48 45 21 N
longitude: 003 16 36 E

traffic information

RWY: 05/23: 3,609 ft (1,100 m) — surface unknown
report copyright

Online pilot logbook: free for each registered member! http://www.pilotlogbook.eu


last flights

RECENTLY ADDED

The Cheyenne

The Cheyenne

21/11/2014 (19x)

lukin

Beauty Kunovice

Beauty Kunovice

14/10/2014 (12x)

Jenki

CIAF 2014

CIAF 2014

07/09/2014 (23x)

Jenki

Virus start na bramkę

Virus start na bramkę ...

04/09/2014 (4x)

oslkj

The Arrow

The Arrow

15/08/2014 (29x)

lukin

STYLUS X3

STYLUS X3 "Beauty"

01/08/2014 (9x)

Jenki

Poprad

Poprad

31/07/2014 (45x)

Jenki

Let.příručka ALTO

09/03/2014 (15x)

Roman Máca